sensor_id;sensor_type;location;lat;lon;timestamp;temperature;humidity
44695;DHT22;32845;59.422;17.930;2022-10-01T00:02:57;9.10;99.90
44695;DHT22;32845;59.422;17.930;2022-10-01T00:07:28;9.10;99.90
44695;DHT22;32845;59.422;17.930;2022-10-01T00:11:59;9.10;99.90
44695;DHT22;32845;59.422;17.930;2022-10-01T00:16:30;9.10;99.90
44695;DHT22;32845;59.422;17.930;2022-10-01T00:21:07;9.00;99.90
44695;DHT22;32845;59.422;17.930;2022-10-01T00:25:39;9.00;99.90
44695;DHT22;32845;59.422;17.930;2022-10-01T00:30:10;9.00;99.90
44695;DHT22;32845;59.422;17.930;2022-10-01T00:34:41;8.90;99.90
44695;DHT22;32845;59.422;17.930;2022-10-01T00:39:12;8.90;99.90
44695;DHT22;32845;59.422;17.930;2022-10-01T00:43:58;8.90;99.90
44695;DHT22;32845;59.422;17.930;2022-10-01T00:48:35;8.90;99.90
44695;DHT22;32845;59.422;17.930;2022-10-01T00:53:09;8.90;99.90
44695;DHT22;32845;59.422;17.930;2022-10-01T00:57:43;8.90;99.90
44695;DHT22;32845;59.422;17.930;2022-10-01T01:02:14;9.00;99.90
44695;DHT22;32845;59.422;17.930;2022-10-01T01:06:51;9.00;99.90
44695;DHT22;32845;59.422;17.930;2022-10-01T01:11:30;9.10;99.90
44695;DHT22;32845;59.422;17.930;2022-10-01T01:16:20;9.10;99.90
44695;DHT22;32845;59.422;17.930;2022-10-01T01:21:20;9.10;99.90
44695;DHT22;32845;59.422;17.930;2022-10-01T01:26:14;9.10;99.90
44695;DHT22;32845;59.422;17.930;2022-10-01T01:30:50;9.10;99.90
44695;DHT22;32845;59.422;17.930;2022-10-01T01:35:29;9.10;99.90
44695;DHT22;32845;59.422;17.930;2022-10-01T01:40:02;9.10;99.90
44695;DHT22;32845;59.422;17.930;2022-10-01T01:44:42;9.10;99.90
44695;DHT22;32845;59.422;17.930;2022-10-01T01:49:17;9.10;99.90
44695;DHT22;32845;59.422;17.930;2022-10-01T01:53:50;9.10;99.90
44695;DHT22;32845;59.422;17.930;2022-10-01T01:58:21;9.00;99.90
44695;DHT22;32845;59.422;17.930;2022-10-01T02:02:55;9.00;99.90
44695;DHT22;32845;59.422;17.930;2022-10-01T02:07:58;8.90;99.90
44695;DHT22;32845;59.422;17.930;2022-10-01T02:17:38;8.80;99.90
44695;DHT22;32845;59.422;17.930;2022-10-01T02:22:13;8.80;99.90
44695;DHT22;32845;59.422;17.930;2022-10-01T02:26:47;8.80;99.90
44695;DHT22;32845;59.422;17.930;2022-10-01T02:31:19;8.80;99.90
44695;DHT22;32845;59.422;17.930;2022-10-01T02:35:52;8.90;99.90
44695;DHT22;32845;59.422;17.930;2022-10-01T02:40:26;8.90;99.90
44695;DHT22;32845;59.422;17.930;2022-10-01T02:44:59;8.90;99.90
44695;DHT22;32845;59.422;17.930;2022-10-01T02:49:34;8.90;99.90
44695;DHT22;32845;59.422;17.930;2022-10-01T02:54:13;9.00;99.90
44695;DHT22;32845;59.422;17.930;2022-10-01T02:58:45;9.10;99.90
44695;DHT22;32845;59.422;17.930;2022-10-01T03:03:16;9.10;99.90
44695;DHT22;32845;59.422;17.930;2022-10-01T03:07:47;9.20;99.90
44695;DHT22;32845;59.422;17.930;2022-10-01T03:12:18;9.20;99.90
44695;DHT22;32845;59.422;17.930;2022-10-01T03:16:50;9.20;99.90
44695;DHT22;32845;59.422;17.930;2022-10-01T03:21:21;9.20;99.90
44695;DHT22;32845;59.422;17.930;2022-10-01T03:25:51;9.10;99.90
44695;DHT22;32845;59.422;17.930;2022-10-01T03:30:22;9.10;99.90
44695;DHT22;32845;59.422;17.930;2022-10-01T03:34:53;9.10;99.90
44695;DHT22;32845;59.422;17.930;2022-10-01T03:39:24;9.00;99.90
44695;DHT22;32845;59.422;17.930;2022-10-01T03:43:54;9.00;99.90
44695;DHT22;32845;59.422;17.930;2022-10-01T03:48:25;9.00;99.90
44695;DHT22;32845;59.422;17.930;2022-10-01T03:52:56;8.90;99.90
44695;DHT22;32845;59.422;17.930;2022-10-01T03:57:27;8.90;99.90
44695;DHT22;32845;59.422;17.930;2022-10-01T04:01:57;8.80;99.90
44695;DHT22;32845;59.422;17.930;2022-10-01T04:06:28;8.90;99.90
44695;DHT22;32845;59.422;17.930;2022-10-01T04:10:59;8.90;99.90
44695;DHT22;32845;59.422;17.930;2022-10-01T04:15:30;8.90;99.90
44695;DHT22;32845;59.422;17.930;2022-10-01T04:20:02;8.90;99.90
44695;DHT22;32845;59.422;17.930;2022-10-01T04:24:33;8.80;99.90
44695;DHT22;32845;59.422;17.930;2022-10-01T04:29:03;8.70;99.90
44695;DHT22;32845;59.422;17.930;2022-10-01T04:33:34;8.60;99.90
44695;DHT22;32845;59.422;17.930;2022-10-01T04:38:08;8.60;99.90
44695;DHT22;32845;59.422;17.930;2022-10-01T04:42:41;8.60;99.90
44695;DHT22;32845;59.422;17.930;2022-10-01T04:47:13;8.60;99.90
44695;DHT22;32845;59.422;17.930;2022-10-01T04:51:43;8.60;99.90
44695;DHT22;32845;59.422;17.930;2022-10-01T04:56:15;8.60;99.90
44695;DHT22;32845;59.422;17.930;2022-10-01T05:00:46;8.60;99.90
44695;DHT22;32845;59.422;17.930;2022-10-01T05:05:19;8.50;99.90
44695;DHT22;32845;59.422;17.930;2022-10-01T05:09:50;8.50;99.90
44695;DHT22;32845;59.422;17.930;2022-10-01T05:14:20;8.40;99.90
44695;DHT22;32845;59.422;17.930;2022-10-01T05:18:51;8.40;99.90
44695;DHT22;32845;59.422;17.930;2022-10-01T05:23:24;8.40;99.90
44695;DHT22;32845;59.422;17.930;2022-10-01T05:27:59;8.30;99.90
44695;DHT22;32845;59.422;17.930;2022-10-01T05:32:35;8.30;99.90
44695;DHT22;32845;59.422;17.930;2022-10-01T05:37:06;8.20;99.90
44695;DHT22;32845;59.422;17.930;2022-10-01T05:41:36;8.20;99.90
44695;DHT22;32845;59.422;17.930;2022-10-01T05:46:09;8.20;99.90
44695;DHT22;32845;59.422;17.930;2022-10-01T05:50:39;8.10;99.90
44695;DHT22;32845;59.422;17.930;2022-10-01T05:55:11;8.10;99.90
44695;DHT22;32845;59.422;17.930;2022-10-01T05:59:42;8.20;99.90
44695;DHT22;32845;59.422;17.930;2022-10-01T06:04:13;8.20;99.90
44695;DHT22;32845;59.422;17.930;2022-10-01T06:08:44;8.20;99.90
44695;DHT22;32845;59.422;17.930;2022-10-01T06:13:16;8.20;99.90
44695;DHT22;32845;59.422;17.930;2022-10-01T06:17:49;8.30;99.90
44695;DHT22;32845;59.422;17.930;2022-10-01T06:22:20;8.30;99.90
44695;DHT22;32845;59.422;17.930;2022-10-01T06:26:51;8.40;99.90
44695;DHT22;32845;59.422;17.930;2022-10-01T06:31:22;8.50;99.90
44695;DHT22;32845;59.422;17.930;2022-10-01T06:35:54;8.60;99.90
44695;DHT22;32845;59.422;17.930;2022-10-01T06:40:25;8.80;99.90
44695;DHT22;32845;59.422;17.930;2022-10-01T06:44:55;8.90;99.90
44695;DHT22;32845;59.422;17.930;2022-10-01T06:49:26;9.00;99.90
44695;DHT22;32845;59.422;17.930;2022-10-01T06:53:57;9.10;99.90
44695;DHT22;32845;59.422;17.930;2022-10-01T06:58:28;9.20;99.90
44695;DHT22;32845;59.422;17.930;2022-10-01T07:02:58;9.30;99.90
44695;DHT22;32845;59.422;17.930;2022-10-01T07:07:31;9.30;99.90
44695;DHT22;32845;59.422;17.930;2022-10-01T07:12:02;9.30;99.90
44695;DHT22;32845;59.422;17.930;2022-10-01T07:16:33;9.40;99.90
44695;DHT22;32845;59.422;17.930;2022-10-01T07:21:04;9.50;99.90
44695;DHT22;32845;59.422;17.930;2022-10-01T07:25:35;9.70;99.90
44695;DHT22;32845;59.422;17.930;2022-10-01T07:30:08;10.00;99.90
44695;DHT22;32845;59.422;17.930;2022-10-01T07:34:39;10.20;99.90
44695;DHT22;32845;59.422;17.930;2022-10-01T07:39:11;10.40;99.90
44695;DHT22;32845;59.422;17.930;2022-10-01T07:43:41;10.60;99.90
44695;DHT22;32845;59.422;17.930;2022-10-01T07:48:13;10.80;99.90
44695;DHT22;32845;59.422;17.930;2022-10-01T07:52:50;10.90;99.90
44695;DHT22;32845;59.422;17.930;2022-10-01T07:57:22;11.10;99.90
44695;DHT22;32845;59.422;17.930;2022-10-01T08:01:53;11.20;99.90
44695;DHT22;32845;59.422;17.930;2022-10-01T08:06:24;11.30;99.90
44695;DHT22;32845;59.422;17.930;2022-10-01T08:10:54;11.40;99.90
44695;DHT22;32845;59.422;17.930;2022-10-01T08:15:25;11.50;99.90
44695;DHT22;32845;59.422;17.930;2022-10-01T08:19:56;11.60;99.90
44695;DHT22;32845;59.422;17.930;2022-10-01T08:24:26;11.70;99.90
44695;DHT22;32845;59.422;17.930;2022-10-01T08:28:57;11.80;99.90
44695;DHT22;32845;59.422;17.930;2022-10-01T08:33:28;11.90;99.90
44695;DHT22;32845;59.422;17.930;2022-10-01T08:38:05;12.10;99.90
44695;DHT22;32845;59.422;17.930;2022-10-01T08:42:58;12.20;99.90
44695;DHT22;32845;59.422;17.930;2022-10-01T08:47:34;12.40;99.90
44695;DHT22;32845;59.422;17.930;2022-10-01T08:52:14;12.50;99.90
44695;DHT22;32845;59.422;17.930;2022-10-01T08:56:49;12.70;99.90
44695;DHT22;32845;59.422;17.930;2022-10-01T09:01:25;12.90;99.90
44695;DHT22;32845;59.422;17.930;2022-10-01T09:06:09;13.20;99.90
44695;DHT22;32845;59.422;17.930;2022-10-01T09:10:48;13.40;99.90
44695;DHT22;32845;59.422;17.930;2022-10-01T09:29:49;13.80;99.90
44695;DHT22;32845;59.422;17.930;2022-10-01T09:34:34;13.90;99.90
44695;DHT22;32845;59.422;17.930;2022-10-01T09:39:26;14.00;99.90
44695;DHT22;32845;59.422;17.930;2022-10-01T09:43:59;14.10;99.90
44695;DHT22;32845;59.422;17.930;2022-10-01T09:49:23;14.10;99.90
44695;DHT22;32845;59.422;17.930;2022-10-01T09:53:35;14.20;99.90
44695;DHT22;32845;59.422;17.930;2022-10-01T09:58:12;14.30;99.90
44695;DHT22;32845;59.422;17.930;2022-10-01T10:02:50;14.30;99.90
44695;DHT22;32845;59.422;17.930;2022-10-01T10:07:21;14.30;99.90
44695;DHT22;32845;59.422;17.930;2022-10-01T10:11:52;14.10;99.90
44695;DHT22;32845;59.422;17.930;2022-10-01T10:16:34;14.10;99.90
44695;DHT22;32845;59.422;17.930;2022-10-01T10:21:12;13.90;99.90
44695;DHT22;32845;59.422;17.930;2022-10-01T10:26:16;13.90;99.90
44695;DHT22;32845;59.422;17.930;2022-10-01T10:30:52;13.70;99.90
44695;DHT22;32845;59.422;17.930;2022-10-01T10:35:24;13.60;99.90
44695;DHT22;32845;59.422;17.930;2022-10-01T10:39:56;13.60;99.90
44695;DHT22;32845;59.422;17.930;2022-10-01T10:44:29;14.00;99.90
44695;DHT22;32845;59.422;17.930;2022-10-01T10:49:15;15.10;99.90
44695;DHT22;32845;59.422;17.930;2022-10-01T10:53:47;16.30;99.90
44695;DHT22;32845;59.422;17.930;2022-10-01T10:58:18;17.40;99.90
44695;DHT22;32845;59.422;17.930;2022-10-01T11:02:59;18.00;99.90
44695;DHT22;32845;59.422;17.930;2022-10-01T11:07:31;18.60;99.90
44695;DHT22;32845;59.422;17.930;2022-10-01T11:17:18;20.00;99.90
44695;DHT22;32845;59.422;17.930;2022-10-01T11:27:46;20.70;99.90
44695;DHT22;32845;59.422;17.930;2022-10-01T11:41:46;21.10;99.90
44695;DHT22;32845;59.422;17.930;2022-10-01T11:51:06;20.30;99.90
44695;DHT22;32845;59.422;17.930;2022-10-01T11:55:54;20.40;99.90
44695;DHT22;32845;59.422;17.930;2022-10-01T12:00:56;20.70;99.90
44695;DHT22;32845;59.422;17.930;2022-10-01T12:05:30;20.80;99.90
44695;DHT22;32845;59.422;17.930;2022-10-01T12:10:29;20.80;99.90
44695;DHT22;32845;59.422;17.930;2022-10-01T12:15:18;20.70;99.90
44695;DHT22;32845;59.422;17.930;2022-10-01T12:19:53;20.30;99.90
44695;DHT22;32845;59.422;17.930;2022-10-01T12:24:44;19.80;99.90
44695;DHT22;32845;59.422;17.930;2022-10-01T12:44:24;18.60;99.90
44695;DHT22;32845;59.422;17.930;2022-10-01T12:49:23;18.50;99.90
44695;DHT22;32845;59.422;17.930;2022-10-01T13:09:04;18.30;99.90
44695;DHT22;32845;59.422;17.930;2022-10-01T13:13:38;18.10;99.90
44695;DHT22;32845;59.422;17.930;2022-10-01T13:23:15;17.70;99.90
44695;DHT22;32845;59.422;17.930;2022-10-01T13:37:37;16.70;99.90
44695;DHT22;32845;59.422;17.930;2022-10-01T13:42:23;16.60;99.90
44695;DHT22;32845;59.422;17.930;2022-10-01T13:47:02;16.70;99.90
44695;DHT22;32845;59.422;17.930;2022-10-01T13:51:37;16.70;99.90
44695;DHT22;32845;59.422;17.930;2022-10-01T13:56:10;16.70;99.90
44695;DHT22;32845;59.422;17.930;2022-10-01T14:00:53;16.50;99.90
44695;DHT22;32845;59.422;17.930;2022-10-01T14:05:41;16.40;99.90
44695;DHT22;32845;59.422;17.930;2022-10-01T14:10:13;16.40;99.90
44695;DHT22;32845;59.422;17.930;2022-10-01T14:14:57;16.30;99.90
44695;DHT22;32845;59.422;17.930;2022-10-01T14:19:48;16.20;99.90
44695;DHT22;32845;59.422;17.930;2022-10-01T14:24:39;16.00;99.90
44695;DHT22;32845;59.422;17.930;2022-10-01T14:29:43;15.90;99.90
44695;DHT22;32845;59.422;17.930;2022-10-01T14:34:29;15.70;99.90
44695;DHT22;32845;59.422;17.930;2022-10-01T14:43:50;15.40;99.90
44695;DHT22;32845;59.422;17.930;2022-10-01T14:48:22;15.20;99.90
44695;DHT22;32845;59.422;17.930;2022-10-01T14:52:53;15.10;99.90
44695;DHT22;32845;59.422;17.930;2022-10-01T14:57:26;15.00;99.90
44695;DHT22;32845;59.422;17.930;2022-10-01T15:02:18;14.90;99.90
44695;DHT22;32845;59.422;17.930;2022-10-01T15:06:49;14.80;99.90
44695;DHT22;32845;59.422;17.930;2022-10-01T15:11:28;14.60;99.90
44695;DHT22;32845;59.422;17.930;2022-10-01T15:16:01;14.50;99.90
44695;DHT22;32845;59.422;17.930;2022-10-01T15:20:32;14.40;99.90
44695;DHT22;32845;59.422;17.930;2022-10-01T15:25:04;14.40;99.90
44695;DHT22;32845;59.422;17.930;2022-10-01T15:29:40;14.20;99.90
44695;DHT22;32845;59.422;17.930;2022-10-01T15:34:14;14.20;99.90
44695;DHT22;32845;59.422;17.930;2022-10-01T15:38:46;14.10;99.90
44695;DHT22;32845;59.422;17.930;2022-10-01T15:43:49;14.00;99.90
44695;DHT22;32845;59.422;17.930;2022-10-01T15:48:27;13.90;99.90
44695;DHT22;32845;59.422;17.930;2022-10-01T15:53:19;13.90;99.90
44695;DHT22;32845;59.422;17.930;2022-10-01T16:02:50;13.70;99.90
44695;DHT22;32845;59.422;17.930;2022-10-01T16:07:28;13.60;99.90
44695;DHT22;32845;59.422;17.930;2022-10-01T16:12:17;13.50;99.90
44695;DHT22;32845;59.422;17.930;2022-10-01T16:16:49;13.40;99.90
44695;DHT22;32845;59.422;17.930;2022-10-01T16:21:20;13.30;99.90
44695;DHT22;32845;59.422;17.930;2022-10-01T16:25:51;13.20;99.90
44695;DHT22;32845;59.422;17.930;2022-10-01T16:30:27;13.00;99.90
44695;DHT22;32845;59.422;17.930;2022-10-01T16:35:21;12.90;99.90
44695;DHT22;32845;59.422;17.930;2022-10-01T16:39:52;12.80;99.90
44695;DHT22;32845;59.422;17.930;2022-10-01T16:44:28;12.70;99.90
44695;DHT22;32845;59.422;17.930;2022-10-01T16:48:59;12.60;99.90
44695;DHT22;32845;59.422;17.930;2022-10-01T16:53:29;12.50;99.90
44695;DHT22;32845;59.422;17.930;2022-10-01T16:58:00;12.40;99.90
44695;DHT22;32845;59.422;17.930;2022-10-01T17:02:31;12.40;99.90
44695;DHT22;32845;59.422;17.930;2022-10-01T17:07:02;12.30;99.90
44695;DHT22;32845;59.422;17.930;2022-10-01T17:11:33;12.20;99.90
44695;DHT22;32845;59.422;17.930;2022-10-01T17:16:04;12.20;99.90
44695;DHT22;32845;59.422;17.930;2022-10-01T17:20:35;12.10;99.90
44695;DHT22;32845;59.422;17.930;2022-10-01T17:25:12;12.10;99.90
44695;DHT22;32845;59.422;17.930;2022-10-01T17:29:43;12.00;99.90
44695;DHT22;32845;59.422;17.930;2022-10-01T17:34:14;11.90;99.90
44695;DHT22;32845;59.422;17.930;2022-10-01T17:38:45;11.90;99.90
44695;DHT22;32845;59.422;17.930;2022-10-01T17:43:16;11.80;99.90
44695;DHT22;32845;59.422;17.930;2022-10-01T17:47:48;11.80;99.90
44695;DHT22;32845;59.422;17.930;2022-10-01T17:52:19;11.70;99.90
44695;DHT22;32845;59.422;17.930;2022-10-01T17:56:51;11.60;99.90
44695;DHT22;32845;59.422;17.930;2022-10-01T18:01:22;11.60;99.90
44695;DHT22;32845;59.422;17.930;2022-10-01T18:06:03;11.60;99.90
44695;DHT22;32845;59.422;17.930;2022-10-01T18:10:33;11.60;99.90
44695;DHT22;32845;59.422;17.930;2022-10-01T18:15:04;11.70;99.90
44695;DHT22;32845;59.422;17.930;2022-10-01T18:19:35;11.70;99.90
44695;DHT22;32845;59.422;17.930;2022-10-01T18:24:06;11.70;99.90
44695;DHT22;32845;59.422;17.930;2022-10-01T18:28:37;11.80;99.90
44695;DHT22;32845;59.422;17.930;2022-10-01T18:33:11;11.80;99.90
44695;DHT22;32845;59.422;17.930;2022-10-01T18:37:49;11.90;99.90
44695;DHT22;32845;59.422;17.930;2022-10-01T18:42:42;11.90;99.90
44695;DHT22;32845;59.422;17.930;2022-10-01T18:47:26;12.00;99.90
44695;DHT22;32845;59.422;17.930;2022-10-01T19:16:04;12.10;99.90
44695;DHT22;32845;59.422;17.930;2022-10-01T19:35:40;11.90;99.90
44695;DHT22;32845;59.422;17.930;2022-10-01T19:40:27;11.80;99.90
44695;DHT22;32845;59.422;17.930;2022-10-01T19:45:17;11.70;99.90
44695;DHT22;32845;59.422;17.930;2022-10-01T19:49:51;11.60;99.90
44695;DHT22;32845;59.422;17.930;2022-10-01T19:54:33;11.60;99.90
44695;DHT22;32845;59.422;17.930;2022-10-01T19:59:16;11.50;99.90
44695;DHT22;32845;59.422;17.930;2022-10-01T20:04:04;11.40;99.90
44695;DHT22;32845;59.422;17.930;2022-10-01T20:08:44;11.30;99.90
44695;DHT22;32845;59.422;17.930;2022-10-01T20:23:33;11.00;99.90
44695;DHT22;32845;59.422;17.930;2022-10-01T20:34:01;10.90;99.90
44695;DHT22;32845;59.422;17.930;2022-10-01T20:38:10;10.90;99.90
44695;DHT22;32845;59.422;17.930;2022-10-01T20:42:46;10.80;99.90
44695;DHT22;32845;59.422;17.930;2022-10-01T20:47:30;10.80;99.90
44695;DHT22;32845;59.422;17.930;2022-10-01T20:57:23;10.80;99.90
44695;DHT22;32845;59.422;17.930;2022-10-01T21:02:23;10.80;99.90
44695;DHT22;32845;59.422;17.930;2022-10-01T21:06:59;10.80;99.90
44695;DHT22;32845;59.422;17.930;2022-10-01T21:11:45;10.80;99.90
44695;DHT22;32845;59.422;17.930;2022-10-01T21:36:08;10.70;99.90
44695;DHT22;32845;59.422;17.930;2022-10-01T21:40:54;10.70;99.90
44695;DHT22;32845;59.422;17.930;2022-10-01T22:00:19;10.60;99.90
44695;DHT22;32845;59.422;17.930;2022-10-01T22:05:00;10.70;99.90
44695;DHT22;32845;59.422;17.930;2022-10-01T22:14:22;10.70;99.90
44695;DHT22;32845;59.422;17.930;2022-10-01T22:18:56;10.80;99.90
44695;DHT22;32845;59.422;17.930;2022-10-01T22:23:30;10.70;99.90
44695;DHT22;32845;59.422;17.930;2022-10-01T22:28:06;10.70;99.90
44695;DHT22;32845;59.422;17.930;2022-10-01T22:37:44;10.70;99.90
44695;DHT22;32845;59.422;17.930;2022-10-01T22:42:28;10.70;99.90
44695;DHT22;32845;59.422;17.930;2022-10-01T22:52:44;10.70;99.90
44695;DHT22;32845;59.422;17.930;2022-10-01T22:57:07;10.70;99.90
44695;DHT22;32845;59.422;17.930;2022-10-01T23:01:59;10.60;99.90
44695;DHT22;32845;59.422;17.930;2022-10-01T23:06:42;10.60;99.90
44695;DHT22;32845;59.422;17.930;2022-10-01T23:11:25;10.70;99.90
44695;DHT22;32845;59.422;17.930;2022-10-01T23:16:19;10.60;99.90
44695;DHT22;32845;59.422;17.930;2022-10-01T23:26:21;10.50;99.90
44695;DHT22;32845;59.422;17.930;2022-10-01T23:31:24;10.50;99.90
44695;DHT22;32845;59.422;17.930;2022-10-01T23:40:44;10.50;99.90
44695;DHT22;32845;59.422;17.930;2022-10-01T23:50:18;10.50;99.90
44695;DHT22;32845;59.422;17.930;2022-10-01T23:54:58;10.50;99.90
